createdAt,value
2022-12-03T00:05:22.568Z,101276.00
2022-12-03T00:15:22.554Z,101272.00
2022-12-03T00:25:22.539Z,101270.00
2022-12-03T00:35:22.569Z,101266.00
2022-12-03T00:45:22.599Z,101260.00
2022-12-03T00:55:22.647Z,101256.00
2022-12-03T01:05:25.662Z,101260.00
2022-12-03T01:15:25.637Z,101260.00
2022-12-03T01:25:25.654Z,101264.00
2022-12-03T01:35:25.647Z,101264.00
2022-12-03T01:45:25.651Z,101268.00
2022-12-03T01:55:25.715Z,101270.00
2022-12-03T02:05:26.529Z,101266.00
2022-12-03T02:15:26.688Z,101266.00
2022-12-03T02:25:26.742Z,101262.00
2022-12-03T02:35:26.859Z,101256.00
2022-12-03T02:45:26.758Z,101254.00
2022-12-03T02:55:30.657Z,101250.00
2022-12-03T03:05:28.807Z,101240.00
2022-12-03T03:15:28.775Z,101235.00
2022-12-03T03:25:28.741Z,101237.00
2022-12-03T03:35:28.909Z,101229.00
2022-12-03T03:45:29.752Z,101223.00
2022-12-03T03:55:29.867Z,101221.00
2022-12-03T04:05:29.901Z,101215.00
2022-12-03T04:15:29.832Z,101217.00
2022-12-03T04:25:48.118Z,101213.00
2022-12-03T04:35:47.941Z,101209.00
2022-12-03T04:45:48.267Z,101203.00
2022-12-03T04:55:48.919Z,101199.00
2022-12-03T05:05:48.979Z,101193.00
2022-12-03T05:15:48.895Z,101188.00
2022-12-03T05:25:48.986Z,101188.00
2022-12-03T05:35:49.321Z,101191.00
2022-12-03T05:45:50.109Z,101188.00
2022-12-03T05:55:49.939Z,101190.00
2022-12-03T06:05:49.987Z,101191.00
2022-12-03T06:15:50.020Z,101193.00
2022-12-03T06:25:52.947Z,101191.00
2022-12-03T06:35:52.980Z,101190.00
2022-12-03T06:45:52.969Z,101188.00
2022-12-03T06:55:53.072Z,101186.00
2022-12-03T07:05:53.042Z,101182.00
2022-12-03T07:15:53.227Z,101184.00
2022-12-03T07:25:53.038Z,101182.00
2022-12-03T07:35:53.190Z,101178.00
2022-12-03T07:45:53.042Z,101178.00
2022-12-03T07:55:53.095Z,101180.00
2022-12-03T08:05:53.073Z,101174.00
2022-12-03T08:15:53.296Z,101176.00
2022-12-03T08:25:53.246Z,101176.00
2022-12-03T08:35:53.147Z,101178.00
2022-12-03T08:45:53.250Z,101180.00
2022-12-03T08:55:56.133Z,101180.00
2022-12-03T09:05:56.211Z,101188.00
2022-12-03T09:15:56.176Z,101190.00
2022-12-03T09:25:56.173Z,101184.00
2022-12-03T09:35:58.103Z,101186.00
2022-12-03T09:45:58.304Z,101182.00
2022-12-03T09:55:58.236Z,101174.00
2022-12-03T10:05:58.248Z,101170.00
2022-12-03T10:15:58.295Z,101160.00
2022-12-03T10:25:58.285Z,101152.00
2022-12-03T10:35:58.366Z,101143.00
2022-12-03T10:46:03.503Z,101129.00
2022-12-03T10:56:01.335Z,101113.00
2022-12-03T11:06:01.354Z,101101.00
2022-12-03T11:16:01.517Z,101090.00
2022-12-03T11:26:01.268Z,101086.00
2022-12-03T11:36:01.363Z,101076.00
2022-12-03T11:46:04.377Z,101068.00
2022-12-03T11:56:08.016Z,101050.00
2022-12-03T12:06:08.410Z,101034.00
2022-12-03T12:16:09.011Z,101028.00
2022-12-03T12:26:09.366Z,101018.00
2022-12-03T12:36:09.363Z,101007.00
2022-12-03T12:46:45.406Z,100997.00
2022-12-03T12:56:14.259Z,100991.00
2022-12-03T13:06:14.409Z,100983.00
2022-12-03T13:16:15.026Z,100975.00
2022-12-03T13:26:30.361Z,100967.00
2022-12-03T13:36:17.549Z,100962.00
2022-12-03T13:46:18.917Z,100954.00
2022-12-03T13:56:19.518Z,100948.00
2022-12-03T14:06:19.473Z,100944.00
2022-12-03T14:16:19.622Z,100942.00
2022-12-03T14:26:19.512Z,100936.00
2022-12-03T14:36:19.495Z,100936.00
2022-12-03T14:46:19.625Z,100936.00
2022-12-03T14:56:19.521Z,100936.00
2022-12-03T15:06:19.978Z,100934.00
2022-12-03T15:16:20.856Z,100932.00
2022-12-03T15:26:20.559Z,100930.00
2022-12-03T15:36:20.559Z,100932.00
2022-12-03T15:46:20.786Z,100934.00
2022-12-03T15:56:20.601Z,100930.00
2022-12-03T16:06:20.601Z,100932.00
2022-12-03T16:16:20.755Z,100932.00
2022-12-03T16:26:22.043Z,100938.00
2022-12-03T16:36:21.668Z,100938.00
2022-12-03T16:46:25.792Z,100934.00
2022-12-03T16:56:26.697Z,100930.00
2022-12-03T17:06:26.725Z,100930.00
2022-12-03T17:16:27.380Z,100924.00
2022-12-03T17:26:27.753Z,100922.00
2022-12-03T17:36:27.772Z,100918.00
2022-12-03T17:46:27.777Z,100915.00
2022-12-03T17:56:27.748Z,100909.00
2022-12-03T18:06:27.754Z,100899.00
2022-12-03T18:16:27.975Z,100897.00
2022-12-03T18:26:27.774Z,100895.00
2022-12-03T18:36:29.413Z,100893.00
2022-12-03T18:46:53.586Z,100885.00
2022-12-03T18:56:31.820Z,100879.00
2022-12-03T19:06:31.818Z,100875.00
2022-12-03T19:16:31.984Z,100871.00
2022-12-03T19:26:31.847Z,100873.00
2022-12-03T19:36:31.832Z,100873.00
2022-12-03T19:46:32.275Z,100879.00
2022-12-03T19:56:32.847Z,100881.00
2022-12-03T20:06:32.914Z,100881.00
2022-12-03T20:16:32.995Z,100881.00
2022-12-03T20:26:32.914Z,100883.00
2022-12-03T20:36:33.232Z,100879.00
2022-12-03T20:46:33.102Z,100873.00
2022-12-03T20:56:32.935Z,100867.00
2022-12-03T21:06:33.755Z,100865.00
2022-12-03T21:26:38.001Z,100856.00
2022-12-03T21:36:38.077Z,100856.00
2022-12-03T21:47:11.700Z,100854.00
2022-12-03T21:56:40.017Z,100850.00
2022-12-03T22:06:40.034Z,100850.00
2022-12-03T22:16:43.106Z,100848.00
2022-12-03T22:26:43.047Z,100848.00
2022-12-03T22:36:43.066Z,100838.00
2022-12-03T22:46:43.115Z,100832.00
2022-12-03T22:56:43.116Z,100824.00
2022-12-03T23:06:43.427Z,100817.00
2022-12-03T23:16:43.110Z,100811.00
2022-12-03T23:26:43.116Z,100801.00
2022-12-03T23:36:43.107Z,100792.00
2022-12-03T23:46:43.213Z,100805.00
2022-12-03T23:56:43.159Z,100805.00
